createdAt,value
2022-10-23T00:00:16.464Z,30.60
2022-10-23T00:10:23.428Z,32.00
2022-10-23T00:20:29.473Z,31.20
2022-10-23T00:30:35.153Z,28.50
2022-10-23T00:40:42.362Z,28.10
2022-10-23T00:50:49.934Z,27.50
2022-10-23T01:00:57.853Z,29.10
2022-10-23T01:11:11.578Z,27.30
2022-10-23T01:21:23.263Z,26.50
2022-10-23T01:31:37.826Z,26.50
2022-10-23T01:41:48.110Z,27.20
2022-10-23T01:51:57.831Z,27.00
2022-10-23T02:02:07.398Z,25.60
2022-10-23T02:22:44.604Z,28.00
2022-10-23T02:32:53.401Z,30.40
2022-10-23T02:43:03.861Z,29.80
2022-10-23T02:53:17.593Z,32.00
2022-10-23T03:03:28.721Z,30.10
2022-10-23T03:13:34.434Z,31.30
2022-10-23T03:23:40.554Z,33.30
2022-10-23T03:33:46.454Z,29.80
2022-10-23T03:43:52.354Z,32.70
2022-10-23T03:53:58.146Z,31.40
2022-10-23T04:04:04.156Z,30.00
2022-10-23T04:14:12.146Z,30.80
2022-10-23T04:24:17.906Z,29.30
2022-10-23T04:34:24.015Z,28.40
2022-10-23T04:44:29.850Z,32.60
2022-10-23T04:54:39.872Z,32.30
2022-10-23T05:04:45.513Z,30.40
2022-10-23T05:14:51.180Z,31.90
2022-10-23T05:24:57.815Z,30.60
2022-10-23T05:35:06.871Z,30.20
2022-10-23T05:45:13.834Z,25.60
2022-10-23T05:55:19.913Z,24.70
2022-10-23T06:05:25.857Z,22.40
2022-10-23T06:15:31.542Z,21.70
2022-10-23T06:25:37.368Z,19.80
2022-10-23T06:35:43.040Z,19.50
2022-10-23T06:45:49.587Z,19.80
2022-10-23T06:55:59.629Z,20.00
2022-10-23T07:06:07.141Z,19.00
2022-10-23T07:16:15.611Z,19.10
2022-10-23T07:26:21.930Z,18.80
2022-10-23T07:36:27.867Z,16.40
2022-10-23T07:46:33.829Z,19.10
2022-10-23T07:56:39.896Z,15.50
2022-10-23T08:06:45.785Z,16.90
2022-10-23T08:16:51.921Z,16.10
2022-10-23T08:26:58.781Z,15.70
2022-10-23T08:37:04.711Z,15.40
2022-10-23T08:47:15.150Z,15.90
2022-10-23T08:57:24.626Z,14.60
2022-10-23T09:07:41.526Z,14.70
2022-10-23T09:17:49.053Z,12.80
2022-10-23T09:27:58.200Z,14.00
2022-10-23T09:38:06.335Z,12.50
2022-10-23T09:48:17.797Z,12.60
2022-10-23T09:58:33.859Z,12.50
2022-10-23T10:08:45.655Z,11.60
2022-10-23T10:18:58.744Z,11.80
2022-10-23T10:29:23.369Z,11.50
2022-10-23T10:39:42.371Z,11.10
2022-10-23T10:49:57.018Z,10.90
2022-10-23T11:00:06.846Z,10.30
2022-10-23T11:10:20.458Z,9.40
2022-10-23T11:20:51.126Z,9.90
2022-10-23T11:31:18.313Z,9.90
2022-10-23T11:41:28.691Z,9.30
2022-10-23T11:51:36.744Z,8.10
2022-10-23T12:01:46.088Z,7.20
2022-10-23T12:12:02.877Z,7.50
2022-10-23T12:22:12.550Z,6.80
2022-10-23T12:32:34.522Z,7.00
2022-10-23T12:42:41.231Z,6.30
2022-10-23T12:52:56.784Z,5.00
2022-10-23T13:03:05.458Z,5.70
2022-10-23T13:13:14.764Z,6.70
2022-10-23T13:23:27.350Z,5.50
2022-10-23T13:33:38.230Z,4.80
2022-10-23T13:43:45.447Z,5.00
2022-10-23T13:53:52.855Z,4.10
2022-10-23T14:04:01.120Z,3.60
2022-10-23T14:24:13.010Z,4.80
2022-10-23T14:34:19.582Z,5.30
2022-10-23T14:44:26.618Z,5.70
2022-10-23T14:54:34.738Z,6.60
2022-10-23T15:14:46.222Z,7.70
2022-10-23T15:24:52.912Z,11.30
2022-10-23T15:35:00.311Z,14.10
2022-10-23T15:45:07.314Z,15.80
2022-10-23T15:55:13.456Z,11.40
2022-10-23T16:05:19.841Z,13.40
2022-10-23T16:15:26.126Z,12.70
2022-10-23T16:35:40.029Z,15.80
2022-10-23T16:45:46.323Z,15.50
2022-10-23T16:55:52.646Z,17.70
2022-10-23T17:06:04.170Z,29.20
2022-10-23T17:16:15.836Z,22.70
2022-10-23T17:26:23.944Z,22.10
2022-10-23T17:46:34.358Z,23.80
2022-10-23T17:56:41.393Z,22.10
2022-10-23T18:06:49.637Z,20.30
2022-10-23T18:16:55.645Z,23.50
2022-10-23T18:27:01.526Z,25.50
2022-10-23T18:37:07.463Z,23.90
2022-10-23T18:47:13.309Z,27.80
2022-10-23T18:57:19.236Z,29.00
2022-10-23T19:07:25.267Z,30.70
2022-10-23T19:17:33.763Z,35.00
2022-10-23T19:27:40.570Z,32.20
2022-10-23T19:37:46.605Z,30.60
2022-10-23T19:47:52.590Z,28.90
2022-10-23T19:57:58.467Z,28.00
2022-10-23T20:08:04.308Z,27.20
2022-10-23T20:18:10.316Z,30.10
2022-10-23T20:28:16.301Z,32.30
2022-10-23T20:38:22.909Z,28.90
2022-10-23T20:48:28.649Z,27.90
2022-10-23T20:58:34.451Z,26.40
2022-10-23T21:08:40.939Z,27.30
2022-10-23T21:18:47.650Z,26.60
2022-10-23T21:29:01.130Z,25.00
2022-10-23T21:39:21.496Z,25.80
2022-10-23T21:49:27.212Z,24.70
2022-10-23T21:59:35.928Z,24.90
2022-10-23T22:09:42.703Z,23.90
2022-10-23T22:19:49.016Z,22.40
2022-10-23T22:29:54.912Z,23.80
2022-10-23T22:40:01.857Z,21.80
2022-10-23T22:50:09.500Z,24.70
2022-10-23T23:00:17.388Z,26.20
2022-10-23T23:10:23.142Z,23.90
2022-10-23T23:20:29.004Z,21.00
2022-10-23T23:30:34.691Z,21.50
2022-10-23T23:40:40.866Z,20.80
2022-10-23T23:50:46.684Z,21.80
